createdAt,value
2022-11-28T00:02:02.019Z,101677.19
2022-11-28T00:04:05.875Z,101678.03
2022-11-28T00:06:08.753Z,101674.53
2022-11-28T00:08:11.543Z,101676.34
2022-11-28T00:10:14.148Z,101680.03
2022-11-28T00:12:16.877Z,101684.50
2022-11-28T00:14:20.231Z,101680.84
2022-11-28T00:16:23.729Z,101680.28
2022-11-28T00:18:26.557Z,101695.31
2022-11-28T00:20:32.028Z,101689.28
2022-11-28T00:22:34.666Z,101693.78
2022-11-28T00:24:37.316Z,101699.09
2022-11-28T00:26:41.789Z,101693.22
2022-11-28T00:28:44.649Z,101703.03
2022-11-28T00:30:47.353Z,101697.00
2022-11-28T00:32:49.963Z,101695.47
2022-11-28T00:34:52.547Z,101696.31
2022-11-28T00:36:55.138Z,101693.22
2022-11-28T00:38:57.694Z,101697.28
2022-11-28T00:41:02.268Z,101698.25
2022-11-28T00:43:04.991Z,101706.41
2022-11-28T00:45:08.275Z,101707.50
2022-11-28T00:47:10.856Z,101707.69
2022-11-28T00:49:13.570Z,101706.13
2022-11-28T00:51:19.830Z,101701.94
2022-11-28T00:53:22.440Z,101709.06
2022-11-28T00:55:25.283Z,101706.56
2022-11-28T00:57:27.945Z,101709.34
2022-11-28T00:59:30.509Z,101707.69
2022-11-28T01:01:44.150Z,101708.94
2022-11-28T01:03:47.855Z,101704.88
2022-11-28T01:05:50.618Z,101709.22
2022-11-28T01:07:53.337Z,101708.09
2022-11-28T01:09:56.307Z,101705.03
2022-11-28T01:11:58.886Z,101712.84
2022-11-28T01:14:02.638Z,101709.50
2022-11-28T01:16:05.840Z,101714.97
2022-11-28T01:18:08.935Z,101708.13
2022-11-28T01:20:12.233Z,101703.34
2022-11-28T01:22:14.833Z,101705.56
2022-11-28T01:24:18.095Z,101707.41
2022-11-28T01:26:24.062Z,101718.91
2022-11-28T01:28:26.765Z,101713.00
2022-11-28T01:30:29.471Z,101715.66
2022-11-28T01:32:32.129Z,101715.81
2022-11-28T01:34:34.817Z,101710.63
2022-11-28T01:36:37.405Z,101708.38
2022-11-28T01:38:40.689Z,101717.91
2022-11-28T01:40:46.764Z,101712.72
2022-11-28T01:42:49.380Z,101713.56
2022-11-28T01:44:55.080Z,101714.69
2022-11-28T01:46:57.836Z,101710.63
2022-11-28T01:49:27.970Z,101714.81
2022-11-28T01:51:31.474Z,101716.66
2022-11-28T01:53:38.041Z,101719.59
2022-11-28T01:55:47.371Z,101725.88
2022-11-28T01:57:50.949Z,101717.34
2022-11-28T02:00:16.724Z,101734.28
2022-11-28T02:02:26.808Z,101728.25
2022-11-28T02:04:30.019Z,101723.09
2022-11-28T02:06:33.462Z,101732.75
2022-11-28T02:08:36.955Z,101733.56
2022-11-28T02:10:58.075Z,101731.91
2022-11-28T02:13:09.315Z,101733.72
2022-11-28T02:15:42.878Z,101733.84
2022-11-28T02:18:12.904Z,101734.81
2022-11-28T02:20:43.040Z,101738.88
2022-11-28T02:23:15.025Z,101738.34
2022-11-28T02:25:39.130Z,101730.47
2022-11-28T02:27:53.972Z,101739.56
2022-11-28T02:30:02.628Z,101736.31
2022-11-28T02:32:13.639Z,101737.88
2022-11-28T02:34:32.113Z,101731.72
2022-11-28T02:36:44.949Z,101725.69
2022-11-28T02:39:36.803Z,101726.81
2022-11-28T02:42:01.853Z,101730.47
2022-11-28T02:44:24.671Z,101725.38
2022-11-28T02:46:32.443Z,101731.69
2022-11-28T02:48:55.775Z,101724.00
2022-11-28T02:51:22.330Z,101732.22
2022-11-28T02:53:29.171Z,101730.44
2022-11-28T02:55:32.474Z,101733.22
2022-11-28T02:57:50.360Z,101727.91
2022-11-28T02:59:53.142Z,101730.69
2022-11-28T03:01:55.841Z,101744.97
2022-11-28T03:04:04.692Z,101749.31
2022-11-28T03:06:10.498Z,101745.81
2022-11-28T03:08:40.640Z,101752.13
2022-11-28T03:11:04.745Z,101747.63
2022-11-28T03:13:34.895Z,101737.94
2022-11-28T03:15:47.235Z,101749.59
2022-11-28T03:18:09.745Z,101749.72
2022-11-28T03:20:44.684Z,101753.91
2022-11-28T03:23:04.591Z,101751.41
2022-11-28T03:25:35.926Z,101755.75
2022-11-28T03:27:46.331Z,101760.09
2022-11-28T03:29:57.996Z,101757.00
2022-11-28T03:32:04.231Z,101755.63
2022-11-28T03:34:10.205Z,101762.06
2022-11-28T03:36:20.126Z,101753.06
2022-11-28T03:38:32.113Z,101757.00
2022-11-28T03:40:37.177Z,101753.34
2022-11-28T03:42:46.502Z,101757.53
2022-11-28T03:45:21.530Z,101760.06
2022-11-28T03:47:29.888Z,101761.88
2022-11-28T03:49:43.072Z,101775.16
2022-11-28T03:51:51.987Z,101777.81
2022-11-28T03:54:01.787Z,101769.84
2022-11-28T03:57:02.879Z,101769.00
2022-11-28T03:59:18.304Z,101768.28
2022-11-28T04:01:53.072Z,101770.25
2022-11-28T04:04:10.559Z,101776.56
2022-11-28T04:06:25.366Z,101781.88
2022-11-28T04:08:43.624Z,101781.75
2022-11-28T04:10:53.187Z,101779.94
2022-11-28T04:12:55.880Z,101784.41
2022-11-28T04:15:06.636Z,101790.69
2022-11-28T04:17:25.705Z,101789.72
2022-11-28T04:19:38.616Z,101784.25
2022-11-28T04:22:03.406Z,101785.81
2022-11-28T04:24:18.172Z,101789.56
2022-11-28T04:26:30.644Z,101793.06
2022-11-28T04:28:36.740Z,101796.59
2022-11-28T04:30:42.421Z,101797.31
2022-11-28T04:32:52.398Z,101801.38
2022-11-28T04:34:59.827Z,101799.56
2022-11-28T04:37:09.483Z,101795.81
2022-11-28T04:39:25.526Z,101797.47
2022-11-28T04:41:37.809Z,101794.81
2022-11-28T04:43:47.532Z,101798.47
2022-11-28T04:45:55.373Z,101803.06
2022-11-28T04:47:58.308Z,101804.75
2022-11-28T04:50:01.284Z,101805.72
2022-11-28T04:52:14.928Z,101800.53
2022-11-28T04:54:37.186Z,101803.78
2022-11-28T04:57:01.148Z,101806.69
2022-11-28T04:59:06.232Z,101812.00
2022-11-28T05:01:14.879Z,101814.66
2022-11-28T05:03:18.071Z,101813.84
2022-11-28T05:05:24.709Z,101812.88
2022-11-28T05:07:27.451Z,101819.16
2022-11-28T05:09:30.196Z,101822.53
2022-11-28T05:11:32.900Z,101815.25
2022-11-28T05:13:35.532Z,101831.22
2022-11-28T05:15:38.390Z,101823.97
2022-11-28T05:17:42.612Z,101827.47
2022-11-28T05:19:45.373Z,101824.78
2022-11-28T05:21:48.086Z,101824.53
2022-11-28T05:23:50.741Z,101825.50
2022-11-28T05:25:53.406Z,101821.03
2022-11-28T05:27:56.478Z,101829.72
2022-11-28T05:29:59.076Z,101825.22
2022-11-28T05:32:01.958Z,101818.94
2022-11-28T05:34:04.739Z,101829.44
2022-11-28T05:36:12.898Z,101825.81
2022-11-28T05:38:16.142Z,101829.31
2022-11-28T05:40:18.801Z,101830.16
2022-11-28T05:42:21.841Z,101831.81
2022-11-28T05:44:27.037Z,101827.22
2022-11-28T05:46:30.479Z,101832.53
2022-11-28T05:48:33.262Z,101832.41
2022-11-28T05:50:39.882Z,101837.47
2022-11-28T05:52:42.771Z,101832.84
2022-11-28T05:54:45.549Z,101835.41
2022-11-28T05:56:48.244Z,101837.06
2022-11-28T05:58:52.621Z,101840.44
2022-11-28T06:00:55.271Z,101840.31
2022-11-28T06:03:01.327Z,101847.91
2022-11-28T06:05:27.310Z,101859.25
2022-11-28T06:07:27.354Z,101856.31
2022-11-28T06:09:29.996Z,101849.16
2022-11-28T06:11:33.945Z,101855.78
2022-11-28T06:13:36.909Z,101855.63
2022-11-28T06:15:44.613Z,101856.47
2022-11-28T06:17:47.275Z,101863.22
2022-11-28T06:19:49.882Z,101867.44
2022-11-28T06:21:52.519Z,101872.63
2022-11-28T06:23:57.648Z,101873.19
2022-11-28T06:26:06.418Z,101876.44
2022-11-28T06:28:09.380Z,101877.16
2022-11-28T06:30:12.337Z,101882.19
2022-11-28T06:32:20.382Z,101873.81
2022-11-28T06:34:24.931Z,101875.50
2022-11-28T06:36:30.850Z,101880.28
2022-11-28T06:38:33.662Z,101894.03
2022-11-28T06:40:39.068Z,101890.22
2022-11-28T06:42:41.809Z,101892.66
2022-11-28T06:44:44.484Z,101898.69
2022-11-28T06:46:47.242Z,101896.69
2022-11-28T06:48:51.739Z,101890.97
2022-11-28T06:51:01.615Z,101889.88
2022-11-28T06:53:04.398Z,101885.50
2022-11-28T06:55:07.521Z,101897.00
2022-11-28T06:57:10.366Z,101901.25
2022-11-28T06:59:13.344Z,101899.28
2022-11-28T07:01:19.182Z,101897.47
2022-11-28T07:03:21.875Z,101909.53
2022-11-28T07:05:27.940Z,101901.97
2022-11-28T07:07:30.816Z,101908.41
2022-11-28T07:09:33.648Z,101910.06
2022-11-28T07:11:36.344Z,101907.41
2022-11-28T07:13:40.163Z,101913.44
2022-11-28T07:15:50.149Z,101912.03
2022-11-28T07:17:53.592Z,101911.78
2022-11-28T07:19:56.365Z,101917.13
2022-11-28T07:21:59.101Z,101913.88
2022-11-28T07:24:01.878Z,101914.69
2022-11-28T07:26:05.635Z,101916.00
2022-11-28T07:28:08.296Z,101916.53
2022-11-28T07:30:11.417Z,101912.63
2022-11-28T07:32:14.152Z,101918.38
2022-11-28T07:34:17.113Z,101915.81
2022-11-28T07:36:22.887Z,101920.91
2022-11-28T07:38:25.504Z,101917.09
2022-11-28T07:40:28.227Z,101922.16
2022-11-28T07:42:30.948Z,101925.41
2022-11-28T07:44:33.738Z,101923.13
2022-11-28T07:46:36.627Z,101923.56
2022-11-28T07:48:40.481Z,101927.03
2022-11-28T07:50:43.218Z,101925.06
2022-11-28T07:52:46.025Z,101922.97
2022-11-28T07:54:51.390Z,101926.75
2022-11-28T07:59:16.894Z,101914.38
2022-11-28T08:01:20.522Z,101924.09
2022-11-28T08:03:23.388Z,101923.94
2022-11-28T08:05:29.175Z,101929.53
2022-11-28T08:07:32.086Z,101928.28
2022-11-28T08:09:34.756Z,101924.63
2022-11-28T08:11:37.394Z,101924.47
2022-11-28T08:13:40.770Z,101918.69
2022-11-28T08:15:43.484Z,101930.34
2022-11-28T08:17:46.155Z,101932.19
2022-11-28T08:19:48.795Z,101922.03
2022-11-28T08:21:51.427Z,101927.25
2022-11-28T08:23:56.268Z,101926.84
2022-11-28T08:26:02.328Z,101933.16
2022-11-28T08:28:05.183Z,101929.53
2022-11-28T08:30:08.713Z,101926.84
2022-11-28T08:32:11.540Z,101932.72
2022-11-28T08:34:14.343Z,101927.94
2022-11-28T08:36:19.651Z,101931.47
2022-11-28T08:38:22.290Z,101930.19
2022-11-28T08:40:24.933Z,101930.03
2022-11-28T08:42:28.922Z,101931.53
2022-11-28T08:44:31.662Z,101930.69
2022-11-28T08:46:34.435Z,101927.75
2022-11-28T08:48:38.317Z,101932.66
2022-11-28T08:50:49.394Z,101936.47
2022-11-28T08:52:51.982Z,101932.97
2022-11-28T08:54:54.868Z,101931.41
2022-11-28T08:56:57.752Z,101932.00
2022-11-28T08:59:00.818Z,101937.69
2022-11-28T09:01:04.355Z,101933.19
2022-11-28T09:03:07.110Z,101938.22
2022-11-28T09:05:09.871Z,101926.56
2022-11-28T09:07:12.600Z,101931.59
2022-11-28T09:09:15.591Z,101928.41
2022-11-28T09:11:20.326Z,101933.22
2022-11-28T09:13:23.142Z,101930.69
2022-11-28T09:15:25.781Z,101920.44
2022-11-28T09:17:28.345Z,101926.44
2022-11-28T09:19:31.448Z,101930.66
2022-11-28T09:21:34.025Z,101921.50
2022-11-28T09:23:37.692Z,101931.91
2022-11-28T09:25:40.630Z,101921.75
2022-11-28T09:27:43.276Z,101927.25
2022-11-28T09:29:45.913Z,101925.28
2022-11-28T09:31:48.570Z,101937.50
2022-11-28T09:33:51.237Z,101928.34
2022-11-28T09:35:55.622Z,101937.06
2022-11-28T09:37:59.051Z,101933.13
2022-11-28T09:40:16.827Z,101933.97
2022-11-28T09:42:39.307Z,101931.72
2022-11-28T09:44:53.296Z,101948.16
2022-11-28T09:47:00.589Z,101945.47
2022-11-28T09:49:09.751Z,101941.53
2022-11-28T09:51:27.457Z,101950.38
2022-11-28T09:54:14.733Z,101942.75
2022-11-28T09:56:21.886Z,101943.59
2022-11-28T09:58:48.412Z,101944.16
2022-11-28T10:01:17.055Z,101940.53
2022-11-28T10:03:31.523Z,101936.00
2022-11-28T10:05:53.348Z,101933.63
2022-11-28T10:08:36.928Z,101935.22
2022-11-28T10:10:58.467Z,101936.50
2022-11-28T10:13:19.486Z,101944.78
2022-11-28T10:15:32.248Z,101937.91
2022-11-28T10:17:48.935Z,101945.63
2022-11-28T10:20:02.923Z,101939.81
2022-11-28T10:22:13.785Z,101945.56
2022-11-28T10:24:45.134Z,101928.69
2022-11-28T10:26:51.733Z,101946.81
2022-11-28T10:28:57.534Z,101936.97
2022-11-28T10:31:04.828Z,101931.59
2022-11-28T10:33:27.320Z,101938.78
2022-11-28T10:35:52.341Z,101939.25
2022-11-28T10:37:55.085Z,101943.78
2022-11-28T10:40:22.480Z,101932.38
2022-11-28T10:42:35.713Z,101938.03
2022-11-28T10:45:15.736Z,101932.28
2022-11-28T10:47:27.133Z,101945.53
2022-11-28T10:49:37.258Z,101945.00
2022-11-28T10:51:55.640Z,101943.47
2022-11-28T10:54:25.757Z,101936.44
2022-11-28T10:56:54.349Z,101937.28
2022-11-28T10:59:19.751Z,101939.66
2022-11-28T11:01:22.639Z,101931.78
2022-11-28T11:03:30.364Z,101934.31
2022-11-28T11:05:36.045Z,101930.81
2022-11-28T11:07:38.745Z,101927.31
2022-11-28T11:09:43.540Z,101927.97
2022-11-28T11:11:57.906Z,101937.44
2022-11-28T11:14:01.101Z,101933.75
2022-11-28T11:16:06.531Z,101931.09
2022-11-28T11:18:44.636Z,101935.75
2022-11-28T11:20:47.592Z,101939.25
2022-11-28T11:23:03.405Z,101937.28
2022-11-28T11:25:18.344Z,101936.59
2022-11-28T11:27:23.220Z,101936.03
2022-11-28T11:29:28.508Z,101948.56
2022-11-28T11:31:34.122Z,101933.97
2022-11-28T11:33:38.060Z,101926.47
2022-11-28T11:35:49.536Z,101942.91
2022-11-28T11:37:53.145Z,101939.00
2022-11-28T11:39:55.757Z,101940.66
2022-11-28T11:42:01.280Z,101948.69
2022-11-28T11:44:15.716Z,101944.22
2022-11-28T11:46:18.414Z,101939.84
2022-11-28T11:48:35.570Z,101942.66
2022-11-28T11:50:39.310Z,101948.44
2022-11-28T11:52:41.956Z,101952.22
2022-11-28T11:54:47.409Z,101938.19
2022-11-28T11:57:05.850Z,101945.50
2022-11-28T11:59:22.397Z,101939.59
2022-11-28T12:01:26.872Z,101944.13
2022-11-28T12:03:47.440Z,101938.63
2022-11-28T12:06:17.867Z,101947.91
2022-11-28T12:09:07.639Z,101939.06
2022-11-28T12:11:35.287Z,101947.66
2022-11-28T12:13:37.978Z,101948.06
2022-11-28T12:16:15.255Z,101953.81
2022-11-28T12:18:45.098Z,101957.63
2022-11-28T12:21:12.092Z,101952.16
2022-11-28T12:23:33.566Z,101959.72
2022-11-28T12:25:45.949Z,101955.09
2022-11-28T12:28:22.552Z,101954.22
2022-11-28T12:30:27.361Z,101948.88
2022-11-28T12:32:39.931Z,101959.31
2022-11-28T12:35:09.247Z,101958.47
2022-11-28T12:37:29.478Z,101954.94
2022-11-28T12:40:04.591Z,101958.47
2022-11-28T12:42:16.921Z,101949.06
2022-11-28T12:44:32.589Z,101953.56
2022-11-28T12:46:53.361Z,101956.91
2022-11-28T12:49:07.763Z,101953.69
2022-11-28T12:51:31.070Z,101957.19
2022-11-28T12:53:42.361Z,101956.91
2022-11-28T12:55:57.035Z,101957.91
2022-11-28T12:58:19.687Z,101959.56
2022-11-28T13:00:26.276Z,101969.16
2022-11-28T13:02:56.773Z,101967.44
2022-11-28T13:05:17.961Z,101962.53
2022-11-28T13:07:38.972Z,101972.25
2022-11-28T13:10:13.278Z,101974.06
2022-11-28T13:12:21.233Z,101966.47
2022-11-28T13:14:33.260Z,101970.00
2022-11-28T13:16:50.285Z,101978.44
2022-11-28T13:19:23.621Z,101969.56
2022-11-28T13:21:36.105Z,101969.72
2022-11-28T13:23:59.832Z,101966.34
2022-11-28T13:26:16.317Z,101970.28
2022-11-28T13:28:53.112Z,101976.31
2022-11-28T13:31:05.221Z,101961.16
2022-11-28T13:33:35.046Z,101979.00
2022-11-28T13:35:42.970Z,101982.78
2022-11-28T13:38:35.743Z,101975.06
2022-11-28T13:40:47.974Z,101981.25
2022-11-28T13:43:09.831Z,101982.66
2022-11-28T13:45:31.952Z,101983.91
2022-11-28T13:47:38.454Z,101981.81
2022-11-28T13:49:41.295Z,101982.78
2022-11-28T13:51:44.232Z,101985.88
2022-11-28T13:53:49.237Z,101995.16
2022-11-28T13:56:13.203Z,101982.50
2022-11-28T13:58:29.201Z,101990.25
2022-11-28T14:00:33.867Z,101996.44
2022-11-28T14:02:45.024Z,101997.28
2022-11-28T14:04:48.437Z,102000.06
2022-11-28T14:07:04.072Z,101999.41
2022-11-28T14:09:20.678Z,101990.41
2022-11-28T14:11:49.831Z,102001.63
2022-11-28T14:14:25.021Z,101990.94
2022-11-28T14:17:29.559Z,101997.00
2022-11-28T14:20:01.561Z,101995.88
2022-11-28T14:22:59.436Z,101991.38
2022-11-28T14:25:25.759Z,101992.38
2022-11-28T14:27:33.499Z,101995.59
2022-11-28T14:29:42.049Z,101989.81
2022-11-28T14:32:06.497Z,101972.13
2022-11-28T14:34:45.584Z,101980.97
2022-11-28T14:36:49.787Z,101978.16
2022-11-28T14:39:17.303Z,101977.31
2022-11-28T14:41:20.168Z,101980.81
2022-11-28T14:43:31.339Z,101976.88
2022-11-28T14:45:34.190Z,101977.44
2022-11-28T14:47:43.054Z,101970.69
2022-11-28T14:49:45.856Z,101977.97
2022-11-28T14:51:48.558Z,101980.34
2022-11-28T14:53:52.313Z,101984.72
2022-11-28T14:55:55.120Z,101982.88
2022-11-28T14:58:01.075Z,101983.59
2022-11-28T15:00:13.818Z,101980.91
2022-11-28T15:02:38.370Z,101972.59
2022-11-28T15:05:02.148Z,101983.28
2022-11-28T15:07:31.570Z,101974.13
2022-11-28T15:10:07.448Z,101976.94
2022-11-28T15:12:58.485Z,101979.47
2022-11-28T15:15:02.145Z,101975.53
2022-11-28T15:17:11.177Z,101977.50
2022-11-28T15:19:31.151Z,101979.44
2022-11-28T15:21:44.286Z,101981.59
2022-11-28T15:23:47.348Z,101968.06
2022-11-28T15:25:58.088Z,101977.59
2022-11-28T15:28:16.350Z,101973.97
2022-11-28T15:30:25.700Z,101971.44
2022-11-28T15:32:32.223Z,101977.47
2022-11-28T15:34:37.935Z,101973.81
2022-11-28T15:36:41.608Z,101976.06
2022-11-28T15:38:44.577Z,101980.53
2022-11-28T15:40:51.859Z,101981.41
2022-11-28T15:42:55.345Z,101987.41
2022-11-28T15:45:07.496Z,101990.09
2022-11-28T15:47:21.655Z,101978.56
2022-11-28T15:49:33.389Z,101980.28
2022-11-28T15:51:36.378Z,101987.41
2022-11-28T15:53:42.589Z,101974.34
2022-11-28T15:55:46.112Z,101978.56
2022-11-28T15:57:48.841Z,101963.97
2022-11-28T15:59:52.080Z,101974.75
2022-11-28T16:02:00.554Z,101983.47
2022-11-28T16:04:15.028Z,101983.03
2022-11-28T16:06:20.133Z,101980.94
2022-11-28T16:08:32.768Z,101988.25
2022-11-28T16:10:38.397Z,101980.22
2022-11-28T16:12:41.991Z,101977.56
2022-11-28T16:14:46.093Z,101977.25
2022-11-28T16:16:49.430Z,101978.94
2022-11-28T16:19:04.334Z,101980.63
2022-11-28T16:21:13.627Z,101967.56
2022-11-28T16:23:30.573Z,101966.69
2022-11-28T16:25:33.442Z,101973.59
2022-11-28T16:27:42.927Z,101971.91
2022-11-28T16:29:47.210Z,101970.22
2022-11-28T16:31:50.647Z,101975.28
2022-11-28T16:33:53.532Z,101979.63
2022-11-28T16:36:20.755Z,101978.66
2022-11-28T16:38:25.151Z,101977.13
2022-11-28T16:40:28.000Z,101977.94
2022-11-28T16:42:31.931Z,101970.94
2022-11-28T16:44:35.030Z,101967.13
2022-11-28T16:46:50.517Z,101964.59
2022-11-28T16:48:58.937Z,101965.41
2022-11-28T16:51:11.390Z,101964.59
2022-11-28T16:53:44.181Z,101968.91
2022-11-28T16:55:47.239Z,101974.13
2022-11-28T16:58:14.254Z,101973.13
2022-11-28T17:00:17.838Z,101972.16
2022-11-28T17:02:25.860Z,101971.91
2022-11-28T17:04:30.757Z,101969.63
2022-11-28T17:06:37.255Z,101978.19
2022-11-28T17:08:40.295Z,101972.16
2022-11-28T17:10:43.162Z,101973.69
2022-11-28T17:12:45.968Z,101978.91
2022-11-28T17:14:48.743Z,101989.44
2022-11-28T17:16:51.616Z,101977.75
2022-11-28T17:18:54.460Z,101975.78
2022-11-28T17:20:57.244Z,101969.03
2022-11-28T17:23:00.094Z,101984.47
2022-11-28T17:25:03.023Z,101976.63
2022-11-28T17:27:09.434Z,101984.47
2022-11-28T17:29:14.888Z,101985.03
2022-11-28T17:31:20.645Z,101989.25
2022-11-28T17:33:23.462Z,101986.44
2022-11-28T17:35:33.257Z,101943.88
2022-11-28T17:37:36.197Z,101987.78
2022-11-28T17:39:39.254Z,101982.31
2022-11-28T17:41:43.331Z,101990.31
2022-11-28T17:43:46.043Z,101982.16
2022-11-28T17:45:51.060Z,101985.66
2022-11-28T17:47:54.428Z,101991.41
2022-11-28T17:49:57.378Z,101993.13
2022-11-28T17:52:00.268Z,101988.91
2022-11-28T17:54:03.459Z,101987.06
2022-11-28T17:56:06.853Z,101988.91
2022-11-28T17:58:30.245Z,101993.81
2022-11-28T18:00:34.565Z,101992.94
2022-11-28T18:02:37.540Z,101996.63
2022-11-28T18:04:40.670Z,101994.78
2022-11-28T18:06:47.444Z,101990.56
2022-11-28T18:08:51.195Z,101989.56
2022-11-28T18:11:05.144Z,102002.13
2022-11-28T18:13:10.292Z,101998.59
2022-11-28T18:15:13.045Z,102002.28
2022-11-28T18:17:15.992Z,101991.59
2022-11-28T18:19:19.373Z,102000.13
2022-11-28T18:21:22.361Z,101997.31
2022-11-28T18:23:25.101Z,101988.75
2022-11-28T18:25:29.274Z,101997.31
2022-11-28T18:27:32.133Z,101989.03
2022-11-28T18:29:35.050Z,101991.72
2022-11-28T18:31:37.879Z,101983.56
2022-11-28T18:33:40.930Z,101983.25
2022-11-28T18:35:43.729Z,101995.34
2022-11-28T18:37:46.720Z,101991.13
2022-11-28T18:39:49.473Z,101991.28
2022-11-28T18:41:52.206Z,102000.00
2022-11-28T18:44:03.880Z,101992.81
2022-11-28T18:46:08.463Z,102008.03
2022-11-28T18:48:11.268Z,102003.69
2022-11-28T18:50:14.037Z,101999.63
2022-11-28T18:52:17.111Z,102002.16
2022-11-28T18:54:21.565Z,102004.53
2022-11-28T18:56:26.135Z,101996.81
2022-11-28T18:58:29.456Z,102007.06
2022-11-28T19:00:32.207Z,101997.50
2022-11-28T19:02:35.054Z,102008.91
2022-11-28T19:04:37.858Z,101998.03
2022-11-28T19:06:41.592Z,101998.75
2022-11-28T19:08:44.699Z,102002.13
2022-11-28T19:10:47.584Z,101996.06
2022-11-28T19:12:50.396Z,101997.31
2022-11-28T19:14:58.740Z,102006.88
2022-11-28T19:17:08.715Z,102007.72
2022-11-28T19:19:12.290Z,102005.88
2022-11-28T19:21:21.231Z,102003.91
2022-11-28T19:23:24.161Z,102015.28
2022-11-28T19:25:27.953Z,102011.09
2022-11-28T19:27:30.600Z,102009.38
2022-11-28T19:29:33.346Z,102011.63
2022-11-28T19:31:37.574Z,102010.94
2022-11-28T19:33:40.327Z,102010.25
2022-11-28T19:35:43.039Z,102011.91
2022-11-28T19:37:45.799Z,102009.56
2022-11-28T19:39:48.649Z,102012.63
2022-11-28T19:41:53.797Z,102013.63
2022-11-28T19:43:57.078Z,102018.97
2022-11-28T19:46:00.314Z,102018.66
2022-11-28T19:48:03.180Z,102014.28
2022-11-28T19:50:07.157Z,102021.34
2022-11-28T19:52:09.857Z,102023.31
2022-11-28T19:54:12.596Z,102026.00
2022-11-28T19:56:21.156Z,102028.34
2022-11-28T19:58:24.370Z,102027.38
2022-11-28T20:00:27.084Z,102023.31
2022-11-28T20:02:30.145Z,102022.31
2022-11-28T20:04:32.825Z,102031.91
2022-11-28T20:06:35.808Z,102030.06
2022-11-28T20:08:39.846Z,102038.94
2022-11-28T20:10:42.549Z,102036.38
2022-11-28T20:12:45.189Z,102026.69
2022-11-28T20:14:47.971Z,102032.03
2022-11-28T20:16:50.672Z,102036.94
2022-11-28T20:18:53.361Z,102029.88
2022-11-28T20:20:55.991Z,102039.75
2022-11-28T20:23:00.114Z,102033.56
2022-11-28T20:25:02.806Z,102026.81
2022-11-28T20:27:05.802Z,102028.34
2022-11-28T20:29:09.641Z,102029.38
2022-11-28T20:31:28.053Z,102028.34
2022-11-28T20:33:30.886Z,102026.38
2022-11-28T20:35:33.485Z,102027.22
2022-11-28T20:37:37.718Z,102032.44
2022-11-28T20:39:40.360Z,102024.53
2022-11-28T20:41:43.017Z,102033.44
2022-11-28T20:43:45.816Z,102022.88
2022-11-28T20:45:48.474Z,102025.41
2022-11-28T20:47:51.138Z,102025.41
2022-11-28T20:49:53.807Z,102031.28
2022-11-28T20:51:56.479Z,102025.94
2022-11-28T20:54:00.426Z,102028.75
2022-11-28T20:56:06.777Z,102030.44
2022-11-28T20:58:09.449Z,102033.81
2022-11-28T21:00:12.693Z,102037.47
2022-11-28T21:02:15.951Z,102039.19
2022-11-28T21:04:19.181Z,102033.97
2022-11-28T21:06:22.011Z,102032.13
2022-11-28T21:08:24.739Z,102040.31
2022-11-28T21:10:28.240Z,102037.47
2022-11-28T21:12:30.903Z,102036.78
2022-11-28T21:14:33.613Z,102041.16
2022-11-28T21:16:36.453Z,102046.63
2022-11-28T21:18:40.992Z,102035.81
2022-11-28T21:20:46.740Z,102038.47
2022-11-28T21:22:49.919Z,102040.16
2022-11-28T21:24:52.632Z,102042.13
2022-11-28T21:26:55.262Z,102043.81
2022-11-28T21:29:02.729Z,102046.63
2022-11-28T21:31:08.551Z,102049.03
2022-11-28T21:33:12.193Z,102042.53
2022-11-28T21:35:14.895Z,102041.69
2022-11-28T21:37:17.592Z,102047.91
2022-11-28T21:39:22.205Z,102044.22
2022-11-28T21:41:28.622Z,102043.53
2022-11-28T21:43:31.696Z,102039.88
2022-11-28T21:45:35.324Z,102037.88
2022-11-28T21:47:38.029Z,102037.88
2022-11-28T21:49:40.812Z,102040.56
2022-11-28T21:51:43.500Z,102040.25
2022-11-28T21:53:46.190Z,102046.44
2022-11-28T21:55:48.881Z,102044.78
2022-11-28T21:57:52.313Z,102038.28
2022-11-28T21:59:55.090Z,102035.59
2022-11-28T22:01:57.927Z,102042.09
2022-11-28T22:04:02.717Z,102044.78
2022-11-28T22:06:09.142Z,102042.94
2022-11-28T22:08:11.755Z,102043.91
2022-11-28T22:10:14.444Z,102040.56
2022-11-28T22:12:17.042Z,102034.34
2022-11-28T22:14:19.760Z,102037.03
2022-11-28T22:16:28.716Z,102047.19
2022-11-28T22:18:31.565Z,102031.84
2022-11-28T22:20:36.496Z,102040.72
2022-11-28T22:22:42.774Z,102037.34
2022-11-28T22:24:45.725Z,102044.53
2022-11-28T22:26:48.522Z,102035.56
2022-11-28T22:28:53.887Z,102038.34
2022-11-28T22:30:56.895Z,102043.97
2022-11-28T22:32:59.794Z,102046.94
2022-11-28T22:35:03.000Z,102043.13
2022-11-28T22:37:06.285Z,102045.09
2022-11-28T22:39:10.963Z,102042.00
2022-11-28T22:41:21.978Z,102033.97
2022-11-28T22:43:29.046Z,102041.47
2022-11-28T22:45:31.822Z,102042.13
2022-11-28T22:47:34.576Z,102037.66
2022-11-28T22:49:37.219Z,102038.16
2022-11-28T22:51:40.550Z,102033.13
2022-11-28T22:53:43.596Z,102039.00
2022-11-28T22:55:46.326Z,102029.06
2022-11-28T22:57:48.968Z,102041.84
2022-11-28T22:59:51.738Z,102041.53
2022-11-28T23:01:54.554Z,102038.88
2022-11-28T23:03:57.204Z,102043.25
2022-11-28T23:06:00.062Z,102048.88
2022-11-28T23:08:02.784Z,102037.34
2022-11-28T23:10:06.136Z,102031.41
2022-11-28T23:12:08.936Z,102031.41
2022-11-28T23:14:15.408Z,102030.31
2022-11-28T23:16:22.742Z,102028.59
2022-11-28T23:18:25.532Z,102034.97
2022-11-28T23:20:28.166Z,102027.06
2022-11-28T23:22:30.937Z,102034.09
2022-11-28T23:24:33.858Z,102023.88
2022-11-28T23:26:36.723Z,102040.59
2022-11-28T23:28:39.535Z,102044.28
2022-11-28T23:30:43.026Z,102045.09
2022-11-28T23:32:45.653Z,102046.81
2022-11-28T23:34:48.339Z,102038.94
2022-11-28T23:36:51.027Z,102041.59
2022-11-28T23:38:59.550Z,102043.97
2022-11-28T23:41:02.242Z,102030.34
2022-11-28T23:43:04.876Z,102030.91
2022-11-28T23:45:08.583Z,102037.91
2022-11-28T23:47:11.306Z,102035.41
2022-11-28T23:49:14.544Z,102037.25
2022-11-28T23:51:19.062Z,102037.09
2022-11-28T23:53:21.740Z,102034.16
2022-11-28T23:55:24.385Z,102038.94
2022-11-28T23:57:27.054Z,102033.44
2022-11-28T23:59:29.729Z,102034.28
